Zullinger, Pennsylvania
Current Conditions -  °F | °C
As of 3:53 PM on Thursday 23 Oct 2014 (Local Time) from KHGR Reporting Station
Overcast Overcast  
Wind Chill: 63°   Ceiling: 5500
Heat Index: 63°   Visibility: 10mi
Dew Point: 43°   Wind: 14mph
Humidity: 48%   Direction: 340°NNW
Pressure: 29.9"   Gusts: 22mph
Location:  39.77°N, 77.63°W
Report Text: KHGR 231953Z 34012G19KT 10SM OVC055 17/06 A2990 RMK AO2 SLP133 T01720061
Loading
Personal Weather Stations






























Interactive Weather Map
Tropical Storm Tracking
New forecast layout! Learn more

10-Day Weather Forecast

Advertisements
Track Severe Weather on mobile